ROU1651 KMIA-CYUL
Flight info
| Callsign | ROU1651 |
|---|---|
| Flight time | N/A |
| Altitude | 36000 |
| Route | FOLZZ3 ALYRA DCT GRUBR Y299 SEELO DCT WAALT Q131 EARZZ DCT JAMIE Q133 PBERG CARTR5 |
| Aircraft | A319/M-SDE3FGHIRWY/LB1 |
Departure
| Time | 2026-05-04 11:41 |
|---|---|
| Airport | Miami International Airport (KMIA) |
Arrival
| Time | N/A |
|---|---|
| Airport | Montreal / Pierre Elliott Trudeau International Airport (CYUL) |
| Time | Latitude | Longitude | Altitude | Speed | Heading |
|---|---|---|---|---|---|
| 2026-05-04 11:23 | 25.79180 | -80.27400 | 19 ft | 0 kts | 79° |
| 2026-05-04 11:29 | 25.79178 | -80.27409 | 9 ft | 2 kts | 80° |
| 2026-05-04 11:29 | 25.79175 | -80.27427 | 25 ft | 2 kts | 84° |
| 2026-05-04 11:29 | 25.79174 | -80.27445 | 20 ft | 2 kts | 88° |
| 2026-05-04 11:29 | 25.79174 | -80.27463 | 22 ft | 2 kts | 96° |
| 2026-05-04 11:31 | 25.79195 | -80.27495 | 23 ft | 0 kts | 182° |
| 2026-05-04 11:33 | 25.78965 | -80.27568 | 22 ft | 12 kts | 259° |
| 2026-05-04 11:33 | 25.78947 | -80.27687 | 22 ft | 19 kts | 265° |
| 2026-05-04 11:33 | 25.78940 | -80.27846 | 24 ft | 20 kts | 268° |
| 2026-05-04 11:34 | 25.78969 | -80.27990 | 29 ft | 19 kts | 298° |
| 2026-05-04 11:34 | 25.79035 | -80.28117 | 26 ft | 19 kts | 300° |
| 2026-05-04 11:34 | 25.79098 | -80.28241 | 26 ft | 18 kts | 300° |
| 2026-05-04 11:34 | 25.79164 | -80.28367 | 23 ft | 20 kts | 308° |
| 2026-05-04 11:35 | 25.79257 | -80.28481 | 22 ft | 20 kts | 299° |
| 2026-05-04 11:35 | 25.79326 | -80.28618 | 19 ft | 21 kts | 300° |
| 2026-05-04 11:35 | 25.79401 | -80.28761 | 18 ft | 21 kts | 304° |
| 2026-05-04 11:35 | 25.79525 | -80.28803 | 22 ft | 18 kts | 358° |
| 2026-05-04 11:36 | 25.79647 | -80.28809 | 23 ft | 17 kts | 357° |
| 2026-05-04 11:36 | 25.79764 | -80.28815 | 24 ft | 17 kts | 357° |
| 2026-05-04 11:36 | 25.79878 | -80.28821 | 25 ft | 16 kts | 0° |
| 2026-05-04 11:36 | 25.79937 | -80.28743 | 29 ft | 14 kts | 87° |
| 2026-05-04 11:37 | 25.79940 | -80.28631 | 24 ft | 15 kts | 86° |
| 2026-05-04 11:37 | 25.79946 | -80.28487 | 21 ft | 23 kts | 87° |
| 2026-05-04 11:37 | 25.79957 | -80.28307 | 19 ft | 23 kts | 86° |
| 2026-05-04 11:37 | 25.79962 | -80.28126 | 17 ft | 24 kts | 88° |
| 2026-05-04 11:38 | 25.79969 | -80.27939 | 16 ft | 24 kts | 87° |
| 2026-05-04 11:38 | 25.79974 | -80.27820 | 19 ft | 23 kts | 87° |
| 2026-05-04 11:38 | 25.79981 | -80.27652 | 21 ft | 21 kts | 87° |
| 2026-05-04 11:38 | 25.79987 | -80.27491 | 22 ft | 20 kts | 88° |
| 2026-05-04 11:39 | 25.79993 | -80.27344 | 28 ft | 18 kts | 87° |
| 2026-05-04 11:39 | 25.80001 | -80.27172 | 27 ft | 17 kts | 87° |
| 2026-05-04 11:40 | 25.80187 | -80.27408 | 24 ft | 81 kts | 267° |
| 2026-05-04 11:41 | 25.80150 | -80.28256 | 18 ft | 137 kts | 267° |
| 2026-05-04 11:41 | 25.80097 | -80.29470 | 131 ft | 169 kts | 269° |
| 2026-05-04 11:41 | 25.80092 | -80.30744 | 748 ft | 164 kts | 276° |
| 2026-05-04 11:41 | 25.80182 | -80.32015 | 1345 ft | 165 kts | 276° |
| 2026-05-04 11:42 | 25.80273 | -80.33294 | 1843 ft | 171 kts | 277° |
| 2026-05-04 11:42 | 25.80393 | -80.34695 | 2098 ft | 193 kts | 277° |
| 2026-05-04 11:42 | 25.80535 | -80.36276 | 2396 ft | 220 kts | 276° |
| 2026-05-04 11:42 | 25.80693 | -80.38054 | 2797 ft | 243 kts | 277° |
| 2026-05-04 11:43 | 25.81239 | -80.39868 | 3381 ft | 256 kts | 306° |
| 2026-05-04 11:43 | 25.82396 | -80.41376 | 4279 ft | 258 kts | 310° |
| 2026-05-04 11:43 | 25.83578 | -80.42896 | 5173 ft | 263 kts | 310° |
| 2026-05-04 11:43 | 25.85030 | -80.44156 | 5987 ft | 272 kts | 336° |
| 2026-05-04 11:44 | 25.86903 | -80.44458 | 6892 ft | 277 kts | 359° |
| 2026-05-04 11:44 | 25.88833 | -80.44373 | 7751 ft | 279 kts | 359° |
| 2026-05-04 11:44 | 25.90780 | -80.44276 | 8532 ft | 282 kts | 359° |
| 2026-05-04 11:44 | 25.92748 | -80.44082 | 9285 ft | 289 kts | 9° |
| 2026-05-04 11:45 | 25.94617 | -80.43171 | 10026 ft | 302 kts | 31° |
| 2026-05-04 11:45 | 25.96120 | -80.41448 | 10402 ft | 327 kts | 56° |
| 2026-05-04 11:45 | 25.96947 | -80.38994 | 10590 ft | 354 kts | 76° |
| 2026-05-04 11:45 | 25.97521 | -80.36247 | 10766 ft | 375 kts | 76° |
| 2026-05-04 11:46 | 25.98108 | -80.33384 | 11231 ft | 384 kts | 76° |
| 2026-05-04 11:46 | 25.98700 | -80.30463 | 11779 ft | 391 kts | 78° |
| 2026-05-04 11:46 | 25.99002 | -80.27434 | 12329 ft | 398 kts | 88° |
| 2026-05-04 11:46 | 25.99120 | -80.24336 | 12888 ft | 404 kts | 88° |
| 2026-05-04 11:47 | 25.99244 | -80.21191 | 13435 ft | 410 kts | 88° |
| 2026-05-04 11:47 | 25.99367 | -80.18001 | 13963 ft | 416 kts | 88° |
| 2026-05-04 11:47 | 25.99489 | -80.14767 | 14443 ft | 421 kts | 88° |
| 2026-05-04 11:47 | 25.99655 | -80.11502 | 14952 ft | 426 kts | 84° |
| 2026-05-04 11:48 | 26.00225 | -80.08262 | 15461 ft | 429 kts | 74° |
| 2026-05-04 11:48 | 26.00997 | -80.05043 | 15978 ft | 433 kts | 75° |
| 2026-05-04 11:48 | 26.01767 | -80.01798 | 16477 ft | 436 kts | 75° |
| 2026-05-04 11:48 | 26.02536 | -79.98523 | 16987 ft | 440 kts | 75° |
| 2026-05-04 11:49 | 26.03303 | -79.95221 | 17491 ft | 443 kts | 76° |
| 2026-05-04 11:49 | 26.04064 | -79.91934 | 17979 ft | 447 kts | 76° |
| 2026-05-04 11:49 | 26.04840 | -79.88578 | 18444 ft | 450 kts | 76° |
| 2026-05-04 11:49 | 26.05622 | -79.85193 | 18873 ft | 453 kts | 76° |
| 2026-05-04 11:50 | 26.06411 | -79.81788 | 19314 ft | 456 kts | 75° |
| 2026-05-04 11:50 | 26.07204 | -79.78363 | 19757 ft | 459 kts | 76° |
| 2026-05-04 11:50 | 26.08003 | -79.74924 | 20235 ft | 461 kts | 75° |
| 2026-05-04 11:50 | 26.08808 | -79.71463 | 20680 ft | 463 kts | 75° |
| 2026-05-04 11:51 | 26.09618 | -79.67987 | 21106 ft | 466 kts | 75° |
| 2026-05-04 11:51 | 26.10667 | -79.64569 | 21512 ft | 468 kts | 65° |
| 2026-05-04 11:51 | 26.12168 | -79.61366 | 21920 ft | 468 kts | 55° |
| 2026-05-04 11:51 | 26.14019 | -79.58391 | 22325 ft | 469 kts | 51° |
| 2026-05-04 11:52 | 26.15911 | -79.55424 | 22735 ft | 471 kts | 51° |
| 2026-05-04 11:52 | 26.17807 | -79.52442 | 23139 ft | 473 kts | 51° |
| 2026-05-04 11:52 | 26.19713 | -79.49437 | 23522 ft | 477 kts | 51° |
| 2026-05-04 11:52 | 26.21634 | -79.46408 | 23836 ft | 480 kts | 51° |
| 2026-05-04 11:53 | 26.23564 | -79.43359 | 24156 ft | 483 kts | 51° |
| 2026-05-04 11:53 | 26.25505 | -79.40294 | 24444 ft | 486 kts | 51° |
| 2026-05-04 11:53 | 26.27520 | -79.37271 | 24754 ft | 486 kts | 45° |
| 2026-05-04 11:53 | 26.29867 | -79.34584 | 25066 ft | 482 kts | 36° |
| 2026-05-04 11:55 | 26.49526 | -79.20226 | 27263 ft | 490 kts | 26° |
| 2026-05-04 11:55 | 26.52404 | -79.18171 | 27556 ft | 492 kts | 26° |
| 2026-05-04 11:56 | 26.55293 | -79.16109 | 27848 ft | 494 kts | 26° |
| 2026-05-04 11:56 | 26.58194 | -79.14038 | 28141 ft | 496 kts | 26° |
| 2026-05-04 11:56 | 26.61103 | -79.11958 | 28411 ft | 498 kts | 26° |
| 2026-05-04 11:56 | 26.63983 | -79.09894 | 28688 ft | 499 kts | 26° |
| 2026-05-04 11:57 | 26.66912 | -79.07793 | 28960 ft | 501 kts | 26° |
| 2026-05-04 11:57 | 26.69852 | -79.05682 | 29222 ft | 503 kts | 26° |
| 2026-05-04 11:57 | 26.72806 | -79.03562 | 29431 ft | 506 kts | 26° |
| 2026-05-04 11:57 | 26.75775 | -79.01431 | 29690 ft | 509 kts | 26° |
| 2026-05-04 11:58 | 26.78765 | -78.99287 | 29906 ft | 511 kts | 26° |
| 2026-05-04 11:58 | 26.81754 | -78.97141 | 30234 ft | 511 kts | 26° |
| 2026-05-04 11:58 | 26.84743 | -78.94991 | 30530 ft | 510 kts | 26° |
| 2026-05-04 11:58 | 26.87727 | -78.92846 | 30823 ft | 510 kts | 26° |
| 2026-05-04 11:59 | 26.90710 | -78.90699 | 31110 ft | 510 kts | 26° |
| 2026-05-04 11:59 | 26.93693 | -78.88550 | 31402 ft | 510 kts | 26° |
| 2026-05-04 11:59 | 26.96671 | -78.86401 | 31687 ft | 509 kts | 26° |
| 2026-05-04 11:59 | 26.99651 | -78.84247 | 31979 ft | 509 kts | 26° |
| 2026-05-04 12:00 | 27.02629 | -78.82096 | 32267 ft | 509 kts | 26° |
| 2026-05-04 12:00 | 27.05606 | -78.79945 | 32618 ft | 509 kts | 26° |
| 2026-05-04 12:00 | 27.08581 | -78.77794 | 32914 ft | 509 kts | 26° |
| 2026-05-04 12:00 | 27.11554 | -78.75647 | 33211 ft | 508 kts | 26° |
| 2026-05-04 12:01 | 27.14526 | -78.73499 | 33513 ft | 508 kts | 26° |
| 2026-05-04 12:01 | 27.17493 | -78.71353 | 33825 ft | 507 kts | 26° |
| 2026-05-04 12:02 | 27.36286 | -78.62318 | 35056 ft | 481 kts | 357° |
| 2026-05-04 12:03 | 27.39610 | -78.61901 | 35272 ft | 481 kts | 357° |
| 2026-05-04 12:03 | 27.42937 | -78.61475 | 35486 ft | 481 kts | 357° |
| 2026-05-04 12:03 | 27.46263 | -78.61044 | 35694 ft | 481 kts | 357° |
| 2026-05-04 12:03 | 27.49592 | -78.60611 | 35900 ft | 481 kts | 356° |
| 2026-05-04 12:04 | 27.52923 | -78.60175 | 36018 ft | 482 kts | 356° |
| 2026-05-04 12:04 | 27.56258 | -78.59737 | 36047 ft | 483 kts | 356° |
| 2026-05-04 12:04 | 27.62928 | -78.58865 | 36044 ft | 482 kts | 356° |
| 2026-05-04 12:05 | 27.69584 | -78.57998 | 36051 ft | 482 kts | 356° |
| 2026-05-04 12:05 | 27.76242 | -78.57131 | 36054 ft | 481 kts | 356° |
| 2026-05-04 12:06 | 27.82897 | -78.56262 | 36058 ft | 481 kts | 356° |
| 2026-05-04 12:06 | 27.89551 | -78.55397 | 36112 ft | 481 kts | 356° |
| 2026-05-04 12:07 | 27.96205 | -78.54524 | 36101 ft | 481 kts | 357° |
| 2026-05-04 12:07 | 28.02852 | -78.53646 | 36089 ft | 481 kts | 357° |
| 2026-05-04 12:08 | 28.09497 | -78.52771 | 36091 ft | 480 kts | 356° |
| 2026-05-04 12:08 | 28.16092 | -78.51909 | 36088 ft | 480 kts | 356° |
| 2026-05-04 12:09 | 28.22734 | -78.51040 | 36080 ft | 479 kts | 356° |
| 2026-05-04 12:09 | 28.29360 | -78.50167 | 36072 ft | 480 kts | 356° |
| 2026-05-04 12:10 | 28.35995 | -78.49294 | 36075 ft | 480 kts | 356° |
| 2026-05-04 12:10 | 28.42636 | -78.48418 | 36086 ft | 481 kts | 356° |
| 2026-05-04 12:11 | 28.49284 | -78.47534 | 36137 ft | 481 kts | 356° |
| 2026-05-04 12:11 | 28.55932 | -78.46653 | 36128 ft | 481 kts | 356° |
| 2026-05-04 12:12 | 28.62577 | -78.45774 | 36116 ft | 481 kts | 356° |
| 2026-05-04 12:12 | 28.69222 | -78.44896 | 36111 ft | 480 kts | 356° |
| 2026-05-04 12:14 | 28.95749 | -78.41367 | 36126 ft | 479 kts | 357° |
| 2026-05-04 12:15 | 29.02371 | -78.40490 | 36129 ft | 479 kts | 357° |
| 2026-05-04 12:15 | 29.08983 | -78.39596 | 36116 ft | 477 kts | 358° |
| 2026-05-04 12:16 | 29.15526 | -78.38715 | 36117 ft | 476 kts | 357° |
| 2026-05-04 12:16 | 29.22114 | -78.37845 | 36123 ft | 477 kts | 357° |
| 2026-05-04 12:17 | 29.28709 | -78.36972 | 36128 ft | 477 kts | 358° |
| 2026-05-04 12:17 | 29.35303 | -78.36075 | 36168 ft | 477 kts | 358° |
| 2026-05-04 12:18 | 29.41900 | -78.35191 | 36155 ft | 477 kts | 358° |
| 2026-05-04 12:18 | 29.48458 | -78.34723 | 36153 ft | 463 kts | 346° |
| 2026-05-04 12:19 | 29.51600 | -78.35243 | 36151 ft | 451 kts | 337° |
| 2026-05-04 12:19 | 29.54603 | -78.36183 | 36153 ft | 447 kts | 334° |
| 2026-05-04 12:19 | 29.60580 | -78.38151 | 36200 ft | 447 kts | 335° |
| 2026-05-04 12:20 | 29.66553 | -78.40096 | 36147 ft | 445 kts | 335° |
| 2026-05-04 12:20 | 29.72520 | -78.42027 | 36143 ft | 446 kts | 335° |
| 2026-05-04 12:21 | 29.78493 | -78.43966 | 36146 ft | 446 kts | 335° |
| 2026-05-04 12:21 | 29.84459 | -78.45914 | 36146 ft | 446 kts | 335° |
| 2026-05-04 12:22 | 29.90422 | -78.47882 | 36198 ft | 445 kts | 335° |
| 2026-05-04 12:22 | 29.96356 | -78.49816 | 36144 ft | 442 kts | 335° |
| 2026-05-04 12:23 | 30.02276 | -78.51749 | 36145 ft | 442 kts | 335° |
| 2026-05-04 12:23 | 30.08193 | -78.53694 | 36144 ft | 443 kts | 335° |
| 2026-05-04 12:24 | 30.14203 | -78.55408 | 36155 ft | 453 kts | 345° |
| 2026-05-04 12:24 | 30.17391 | -78.55536 | 36153 ft | 465 kts | 355° |
| 2026-05-04 12:24 | 30.20637 | -78.55119 | 36157 ft | 470 kts | 359° |
| 2026-05-04 12:25 | 30.27133 | -78.54167 | 36161 ft | 470 kts | 359° |
| 2026-05-04 12:25 | 30.33586 | -78.53236 | 36158 ft | 471 kts | 359° |
| 2026-05-04 12:26 | 30.40087 | -78.52316 | 36157 ft | 471 kts | 358° |
| 2026-05-04 12:26 | 30.46589 | -78.51357 | 36197 ft | 472 kts | 359° |
| 2026-05-04 12:27 | 30.53088 | -78.50289 | 36186 ft | 472 kts | 0° |
| 2026-05-04 12:27 | 30.59580 | -78.49197 | 36185 ft | 471 kts | 360° |
| 2026-05-04 12:28 | 30.66065 | -78.48137 | 36182 ft | 470 kts | 360° |
| 2026-05-04 12:28 | 30.72544 | -78.47091 | 36171 ft | 470 kts | 360° |
| 2026-05-04 12:29 | 30.78985 | -78.46041 | 36160 ft | 465 kts | 0° |
| 2026-05-04 12:29 | 30.85380 | -78.44999 | 36156 ft | 464 kts | 0° |
| 2026-05-04 12:30 | 30.91778 | -78.43961 | 36157 ft | 464 kts | 0° |
| 2026-05-04 12:30 | 30.97096 | -78.43098 | 36159 ft | 464 kts | 0° |
| 2026-05-04 12:31 | 31.03498 | -78.42047 | 36196 ft | 464 kts | 0° |
| 2026-05-04 12:31 | 31.09888 | -78.40989 | 36189 ft | 463 kts | 0° |
| 2026-05-04 12:32 | 31.19451 | -78.39414 | 36180 ft | 462 kts | 0° |
| 2026-05-04 12:33 | 31.25816 | -78.38366 | 36173 ft | 462 kts | 0° |
| 2026-05-04 12:33 | 31.32174 | -78.37327 | 36203 ft | 461 kts | 0° |
| 2026-05-04 12:34 | 31.38514 | -78.36288 | 36195 ft | 459 kts | 1° |
| 2026-05-04 12:34 | 31.44840 | -78.35241 | 36188 ft | 459 kts | 1° |
| 2026-05-04 12:35 | 31.51159 | -78.34190 | 36187 ft | 459 kts | 1° |
| 2026-05-04 12:35 | 31.57464 | -78.33142 | 36172 ft | 454 kts | 1° |
| 2026-05-04 12:36 | 31.63697 | -78.32114 | 36163 ft | 452 kts | 1° |
| 2026-05-04 12:36 | 31.69923 | -78.31101 | 36163 ft | 452 kts | 1° |
| 2026-05-04 12:37 | 31.76154 | -78.30068 | 36164 ft | 452 kts | 1° |
| 2026-05-04 12:37 | 31.82389 | -78.29024 | 36198 ft | 453 kts | 1° |
| 2026-05-04 12:38 | 31.88581 | -78.27987 | 36194 ft | 452 kts | 1° |
| 2026-05-04 12:38 | 31.94808 | -78.26956 | 36190 ft | 452 kts | 1° |
| 2026-05-04 12:39 | 32.01030 | -78.25918 | 36188 ft | 451 kts | 1° |
| 2026-05-04 12:39 | 32.07243 | -78.24759 | 36233 ft | 453 kts | 3° |
| 2026-05-04 12:40 | 32.13416 | -78.23379 | 36169 ft | 450 kts | 4° |
| 2026-05-04 12:40 | 32.19555 | -78.21983 | 36168 ft | 449 kts | 4° |
| 2026-05-04 12:41 | 32.25701 | -78.20651 | 36168 ft | 449 kts | 4° |
| 2026-05-04 12:41 | 32.31852 | -78.19336 | 36170 ft | 449 kts | 4° |
| 2026-05-04 12:42 | 32.38002 | -78.18003 | 36196 ft | 449 kts | 4° |
| 2026-05-04 12:42 | 32.44147 | -78.16667 | 36187 ft | 449 kts | 4° |
| 2026-05-04 12:43 | 32.50284 | -78.15335 | 36182 ft | 448 kts | 4° |
| 2026-05-04 12:43 | 32.56415 | -78.14005 | 36178 ft | 448 kts | 4° |
| 2026-05-04 12:44 | 32.62547 | -78.12667 | 36206 ft | 448 kts | 4° |
| 2026-05-04 12:44 | 32.68673 | -78.11329 | 36195 ft | 447 kts | 4° |
| 2026-05-04 12:45 | 32.74790 | -78.09993 | 36190 ft | 447 kts | 4° |
| 2026-05-04 12:45 | 32.80908 | -78.08671 | 36183 ft | 447 kts | 4° |
| 2026-05-04 12:46 | 32.87020 | -78.07331 | 36185 ft | 447 kts | 4° |
| 2026-05-04 12:46 | 32.93128 | -78.05987 | 36174 ft | 446 kts | 4° |
| 2026-05-04 12:47 | 32.99230 | -78.04646 | 36171 ft | 446 kts | 4° |
| 2026-05-04 12:47 | 33.05289 | -78.03317 | 36168 ft | 446 kts | 4° |
| 2026-05-04 12:48 | 33.11429 | -78.01963 | 36205 ft | 446 kts | 4° |
| 2026-05-04 12:48 | 33.17483 | -78.00624 | 36192 ft | 445 kts | 4° |
| 2026-05-04 12:49 | 33.23566 | -77.99280 | 36182 ft | 444 kts | 3° |
| 2026-05-04 12:49 | 33.29646 | -77.97944 | 36175 ft | 444 kts | 3° |
| 2026-05-04 12:50 | 33.35723 | -77.96597 | 36166 ft | 444 kts | 4° |
| 2026-05-04 12:50 | 33.41798 | -77.95251 | 36185 ft | 444 kts | 4° |
| 2026-05-04 12:51 | 33.47877 | -77.93901 | 36178 ft | 444 kts | 4° |
| 2026-05-04 12:51 | 33.53956 | -77.92548 | 36170 ft | 444 kts | 4° |
| 2026-05-04 12:52 | 33.60033 | -77.91196 | 36167 ft | 444 kts | 4° |
| 2026-05-04 12:52 | 33.66116 | -77.89842 | 36195 ft | 445 kts | 3° |
| 2026-05-04 12:53 | 33.72201 | -77.88488 | 36184 ft | 444 kts | 3° |
| 2026-05-04 12:53 | 33.78281 | -77.87130 | 36175 ft | 444 kts | 3° |
| 2026-05-04 12:54 | 33.84353 | -77.85697 | 36166 ft | 445 kts | 4° |
| 2026-05-04 12:54 | 33.90418 | -77.84145 | 36190 ft | 446 kts | 5° |
| 2026-05-04 12:55 | 33.96482 | -77.82579 | 36177 ft | 446 kts | 4° |
| 2026-05-04 12:55 | 34.02547 | -77.81038 | 36170 ft | 445 kts | 4° |
| 2026-05-04 12:56 | 34.08618 | -77.79514 | 36166 ft | 446 kts | 4° |
| 2026-05-04 12:56 | 34.14686 | -77.77987 | 36193 ft | 446 kts | 4° |
| 2026-05-04 12:57 | 34.20756 | -77.76448 | 36183 ft | 445 kts | 4° |
| 2026-05-04 12:57 | 34.26821 | -77.74907 | 36178 ft | 445 kts | 4° |
| 2026-05-04 12:58 | 34.32882 | -77.73368 | 36172 ft | 445 kts | 4° |
| 2026-05-04 12:58 | 34.38942 | -77.71830 | 36202 ft | 445 kts | 4° |
| 2026-05-04 12:59 | 34.44996 | -77.70289 | 36194 ft | 444 kts | 4° |
| 2026-05-04 12:59 | 34.51007 | -77.68758 | 36185 ft | 444 kts | 4° |
| 2026-05-04 13:00 | 34.57024 | -77.66859 | 36179 ft | 456 kts | 14° |
| 2026-05-04 13:00 | 34.62788 | -77.63485 | 36217 ft | 461 kts | 18° |
| 2026-05-04 13:01 | 34.68545 | -77.60043 | 36195 ft | 461 kts | 18° |
| 2026-05-04 13:01 | 34.74314 | -77.56600 | 36160 ft | 462 kts | 18° |
| 2026-05-04 13:02 | 34.80094 | -77.53148 | 36150 ft | 464 kts | 18° |
| 2026-05-04 13:02 | 34.85889 | -77.49677 | 36196 ft | 465 kts | 18° |
| 2026-05-04 13:03 | 34.91699 | -77.46182 | 36162 ft | 466 kts | 18° |
| 2026-05-04 13:03 | 34.97526 | -77.42672 | 36156 ft | 467 kts | 18° |
| 2026-05-04 13:04 | 35.03362 | -77.39162 | 36156 ft | 468 kts | 18° |
| 2026-05-04 13:04 | 35.09208 | -77.35638 | 36185 ft | 469 kts | 18° |
| 2026-05-04 13:05 | 35.15057 | -77.32104 | 36166 ft | 469 kts | 19° |
| 2026-05-04 13:05 | 35.20915 | -77.28552 | 36153 ft | 470 kts | 19° |
| 2026-05-04 13:06 | 35.26774 | -77.24998 | 36155 ft | 470 kts | 19° |
| 2026-05-04 13:06 | 35.32635 | -77.21440 | 36143 ft | 471 kts | 19° |
| 2026-05-04 13:07 | 35.38510 | -77.17865 | 36136 ft | 472 kts | 19° |
| 2026-05-04 13:07 | 35.44394 | -77.14284 | 36137 ft | 472 kts | 19° |
| 2026-05-04 13:08 | 35.50282 | -77.10693 | 36139 ft | 473 kts | 19° |
| 2026-05-04 13:08 | 35.56172 | -77.07098 | 36187 ft | 473 kts | 19° |
| 2026-05-04 13:09 | 35.62070 | -77.03491 | 36164 ft | 474 kts | 20° |
| 2026-05-04 13:09 | 35.67969 | -76.99868 | 36154 ft | 474 kts | 20° |
| 2026-05-04 13:10 | 35.73870 | -76.96236 | 36147 ft | 474 kts | 20° |
| 2026-05-04 13:10 | 35.79733 | -76.92623 | 36173 ft | 474 kts | 20° |
| 2026-05-04 13:11 | 35.85634 | -76.88985 | 36160 ft | 474 kts | 20° |
| 2026-05-04 13:11 | 35.91538 | -76.85349 | 36133 ft | 474 kts | 19° |
| 2026-05-04 13:12 | 35.97551 | -76.82059 | 36120 ft | 472 kts | 15° |
| 2026-05-04 13:12 | 36.03650 | -76.79056 | 36166 ft | 472 kts | 15° |
| 2026-05-04 13:13 | 36.09750 | -76.76031 | 36152 ft | 473 kts | 16° |
| 2026-05-04 13:13 | 36.15824 | -76.72898 | 36142 ft | 473 kts | 17° |
| 2026-05-04 13:14 | 36.21887 | -76.69720 | 36133 ft | 473 kts | 16° |
| 2026-05-04 13:14 | 36.27954 | -76.66559 | 36158 ft | 473 kts | 16° |
| 2026-05-04 13:15 | 36.34016 | -76.63414 | 36146 ft | 472 kts | 16° |
| 2026-05-04 13:15 | 36.40068 | -76.60266 | 36133 ft | 471 kts | 16° |
| 2026-05-04 13:16 | 36.46112 | -76.57114 | 36124 ft | 471 kts | 16° |
| 2026-05-04 13:16 | 36.52147 | -76.53960 | 36150 ft | 470 kts | 16° |
| 2026-05-04 13:17 | 36.58166 | -76.50808 | 36150 ft | 469 kts | 16° |
| 2026-05-04 13:17 | 36.64180 | -76.47658 | 36113 ft | 470 kts | 17° |
| 2026-05-04 13:18 | 36.69191 | -76.45026 | 36094 ft | 471 kts | 17° |
| 2026-05-04 13:18 | 36.75225 | -76.41852 | 36118 ft | 471 kts | 17° |
| 2026-05-04 13:19 | 36.81267 | -76.38678 | 36114 ft | 471 kts | 17° |
| 2026-05-04 13:19 | 36.87301 | -76.35482 | 36147 ft | 471 kts | 17° |
| 2026-05-04 13:20 | 36.93338 | -76.32277 | 36183 ft | 471 kts | 17° |
| 2026-05-04 13:20 | 36.99373 | -76.29088 | 36176 ft | 470 kts | 17° |
| 2026-05-04 13:21 | 37.05394 | -76.25899 | 36110 ft | 470 kts | 17° |
| 2026-05-04 13:21 | 37.11405 | -76.22701 | 36106 ft | 469 kts | 17° |
| 2026-05-04 13:22 | 37.17414 | -76.19503 | 36136 ft | 469 kts | 17° |
| 2026-05-04 13:22 | 37.23414 | -76.16307 | 36126 ft | 468 kts | 17° |
| 2026-05-04 13:23 | 37.29406 | -76.13112 | 36094 ft | 468 kts | 17° |
| 2026-05-04 13:23 | 37.35409 | -76.09897 | 36082 ft | 469 kts | 17° |
| 2026-05-04 13:24 | 37.41422 | -76.06672 | 36111 ft | 470 kts | 17° |
| 2026-05-04 13:24 | 37.47442 | -76.03442 | 36100 ft | 470 kts | 17° |
| 2026-05-04 13:25 | 37.56469 | -75.98580 | 36091 ft | 471 kts | 17° |
| 2026-05-04 13:25 | 37.62358 | -75.94903 | 36079 ft | 479 kts | 28° |
| 2026-05-04 13:26 | 37.67928 | -75.90281 | 36083 ft | 479 kts | 27° |
| 2026-05-04 13:26 | 37.73465 | -75.85692 | 36083 ft | 479 kts | 27° |
| 2026-05-04 13:27 | 37.79040 | -75.81071 | 36093 ft | 479 kts | 27° |
| 2026-05-04 13:27 | 37.84615 | -75.76443 | 36094 ft | 480 kts | 28° |
| 2026-05-04 13:28 | 37.90196 | -75.71792 | 36086 ft | 480 kts | 28° |
| 2026-05-04 13:28 | 37.95780 | -75.67129 | 36086 ft | 481 kts | 28° |
| 2026-05-04 13:29 | 38.01366 | -75.62448 | 36115 ft | 482 kts | 28° |
| 2026-05-04 13:29 | 38.06950 | -75.57751 | 36107 ft | 481 kts | 28° |
| 2026-05-04 13:30 | 38.12537 | -75.53060 | 36101 ft | 481 kts | 28° |
| 2026-05-04 13:30 | 38.18122 | -75.48380 | 36095 ft | 481 kts | 27° |
| 2026-05-04 13:31 | 38.23708 | -75.43705 | 36110 ft | 479 kts | 25° |
| 2026-05-04 13:31 | 38.29718 | -75.40445 | 36081 ft | 463 kts | 7° |
| 2026-05-04 13:32 | 38.36010 | -75.39012 | 36072 ft | 459 kts | 2° |
| 2026-05-04 13:32 | 38.42322 | -75.37675 | 36068 ft | 460 kts | 3° |
| 2026-05-04 13:33 | 38.48645 | -75.36336 | 36101 ft | 461 kts | 3° |
| 2026-05-04 13:33 | 38.54970 | -75.34990 | 36097 ft | 461 kts | 3° |
| 2026-05-04 13:34 | 38.61292 | -75.33633 | 36089 ft | 460 kts | 3° |
| 2026-05-04 13:34 | 38.67609 | -75.32286 | 36108 ft | 460 kts | 3° |
| 2026-05-04 13:35 | 38.77045 | -75.29908 | 36087 ft | 468 kts | 13° |
| 2026-05-04 13:36 | 38.82900 | -75.26173 | 36080 ft | 476 kts | 24° |
| 2026-05-04 13:36 | 38.88695 | -75.22039 | 36108 ft | 477 kts | 23° |
| 2026-05-04 13:37 | 38.94497 | -75.17912 | 36090 ft | 476 kts | 23° |
| 2026-05-04 13:37 | 39.00295 | -75.13784 | 36079 ft | 476 kts | 23° |
| 2026-05-04 13:38 | 39.06090 | -75.09654 | 36076 ft | 477 kts | 23° |
| 2026-05-04 13:38 | 39.11890 | -75.05513 | 36096 ft | 476 kts | 24° |
| 2026-05-04 13:39 | 39.17690 | -75.01356 | 36072 ft | 477 kts | 24° |
| 2026-05-04 13:39 | 39.23499 | -74.97181 | 36072 ft | 478 kts | 24° |
| 2026-05-04 13:40 | 39.29140 | -74.92563 | 36095 ft | 483 kts | 30° |
| 2026-05-04 13:40 | 39.34628 | -74.87564 | 36082 ft | 482 kts | 30° |
| 2026-05-04 13:41 | 39.40107 | -74.82563 | 36081 ft | 482 kts | 30° |
| 2026-05-04 13:41 | 39.45582 | -74.77570 | 36079 ft | 482 kts | 30° |
| 2026-05-04 13:42 | 39.53787 | -74.70066 | 36090 ft | 481 kts | 30° |
| 2026-05-04 13:42 | 39.59242 | -74.65055 | 36083 ft | 481 kts | 30° |
| 2026-05-04 13:43 | 39.64695 | -74.60040 | 36079 ft | 481 kts | 30° |
| 2026-05-04 13:43 | 39.70154 | -74.55025 | 36072 ft | 481 kts | 30° |
| 2026-05-04 13:44 | 39.75609 | -74.49992 | 36065 ft | 481 kts | 31° |
| 2026-05-04 13:44 | 39.81057 | -74.44945 | 36066 ft | 481 kts | 31° |
| 2026-05-04 13:45 | 39.86461 | -74.39927 | 36094 ft | 480 kts | 31° |
| 2026-05-04 13:45 | 39.91900 | -74.34888 | 36067 ft | 479 kts | 31° |
| 2026-05-04 13:46 | 39.97334 | -74.29841 | 36055 ft | 480 kts | 31° |
| 2026-05-04 13:46 | 40.02761 | -74.24784 | 36047 ft | 480 kts | 31° |
| 2026-05-04 13:47 | 40.08199 | -74.19708 | 36072 ft | 480 kts | 31° |
| 2026-05-04 13:47 | 40.13625 | -74.14634 | 36067 ft | 480 kts | 31° |
| 2026-05-04 13:48 | 40.19047 | -74.09551 | 36063 ft | 480 kts | 31° |
| 2026-05-04 13:48 | 40.24462 | -74.04453 | 36071 ft | 479 kts | 31° |
| 2026-05-04 13:49 | 40.29868 | -73.99345 | 36047 ft | 479 kts | 31° |
| 2026-05-04 13:49 | 40.35370 | -73.94473 | 36024 ft | 474 kts | 22° |
| 2026-05-04 13:50 | 40.41319 | -73.90784 | 36026 ft | 473 kts | 20° |
| 2026-05-04 13:50 | 40.47271 | -73.87096 | 36058 ft | 473 kts | 20° |